Forside
METAR-TAF:

METAR-TAF

Lufthavne :

Namangan, Usbekistan

Breddekreds: 40-59-04N, længdekreds: 071-33-24E, højde: 474 m

Aktuelle vejr

Denne rapport blev lavet for 51 minutter siden, kl. 12:30 UTC
Vind 2 kt fra varierende retninger
Temperatur 29°C
Fugtighed 23%
Tryk 1011 hPa
Sigt 10 km eller mere

METAR: UTFN 191230Z VRB02KT 9999 NSC 29/06 Q1011 R28/CLRD70 NOSIG

Tid: 18:21 (13:21 UTC)

Vejrudsigter

Denne rapport blev lavet for 2 timer og 21 minutter siden, kl. 11:00 UTC
Foreløbig gælder fra 19 på 12 UTC til 20 på 12 UTC
Vind 10 kt fra nordnordvest
Sigt 10 km eller mere
Nogle få skyer i en højde af 5000 ft, Cumulonimbus.
Midlertidig
fra 20 på 06 UTC til 20 på 12 UTC
Vind 14 kt fra vestsydvest med vindstød på up til 24 kt
Sigt: 5000 m
Spredte skyer i en højde af 5000 ft, Cumulonimbus.

TAF: UTFN 191100Z 1912/2012 33010KT 9999 FEW050CB TEMPO 2006/2012 24014G24KT 5000 -DS SCT050CB

Vejrobservationer og prognoser fra mere end 4000 lufthavne (METAR og TAF).

De gule og røde prikker repræsenterer de meteorologiske stationer.

Flyt musen over at se navnet på stationen.

Så klik over at se vejr observationer og prognoser.

At skifte det kort: Klik på de grønne knapper med et sort kors for at zoome ind; på den grønne knap med en bindestreg for at zoome ud; eller på de grønne pile for tilstødende kort.


METAR-TAF: